Airfield :
LOGIN :

Register | Disclaimer

   EN    FR    IT 

 










Legend :    VFR   Marginal VFR   IFR   Intensive IFR   Very Intensive IFR
Visi :
Ceiling :
>= 8 km
>= 3000ft
5 to 8 km
1000 to 3000 ft
1500m to 5 km
500 to 1000 ft
800 to 1500m
200 to 500 ft
< 800m
< 200 ft
Symbols :   Thunderstorms  Fog  Heavy snow  Heavy precipitations  Wind > 20 kt
SIGMETs :     Misc.  Thunderstorms  Icing  Turbulence  Mountain Waves  Volcanic Ashes






- Airport Elevation : 526 ft
- IATA code : LTN


EGGW - London Luton

CURRENT METAR :
  • 300150Z 19004KT 3000 BR SCT039 11/10 Q1013

EXPIRED METARs :
  • 300120Z 18003KT 5000 HZ NSC 11/10 Q1013
  • 300050Z AUTO 19004KT 9000 SCT048 11/10 Q1013
  • 300020Z AUTO 20005KT 9999 FEW011 BKN044 12/11 Q1013
  • 292350Z AUTO VRB03KT 9999 FEW036 12/11 Q1013
  • 292320Z AUTO 16004KT 8000 SCT039 12/11 Q1014

TAF AMD TAF EGGW
Valid from the 30 at 02:00 until the 01 at 00:00 UTC


300209Z 3002/3024 17008KT 0200 FG BKN001
PROB30 3002/3004 3000 BR SCT001 BKN004
BECMG 3004/3007 9999 NSW BKN020
TEMPO 3009/3019 18015G25KT
TEMPO 3010/3022 7000 RA BKN012
PROB30
TEMPO 3013/3021 4000 +RA BKN008
BECMG 3019/3022 23010KT
ATIS : +44 1582 395 204



MET'MAP, your aeronautical weather chart ! - Copyright ORBIFLY December 2007 - Disclaimer

ORBIFLY MET'MAP TEAM :

Programming & Development : Alexandra Zaïnal
Concept & original design : Baudouin d'Aumeries
Assistance for programming : Marc-Olivier Méhu
Technical & hardware support : Manuel Goepfert

Contact : metmap@orbifly.com




SOURCES & CREDITS :

   NOAA